Time;durP1;ratioP1;P1;durP2;ratioP2;P2;SDS_P1;SDS_P2;PMS_P1;PMS_P2;Temp;Humidity;BMP_temperature;BMP_pressure;BME280_temperature;BME280_humidity;BME280_pressure;Samples;Min_cycle;Max_cycle;Signal;HPM_P1;HPM_P2
2023/11/07 00:00:40;;;;;;;2.07;0.90;;;13.00;99.90;;;;;;5125013;27;20175;-79
2023/11/07 00:03:06;;;;;;;0.30;0.20;;;13.00;99.90;;;;;;5124883;27;20226;-86
2023/11/07 00:05:31;;;;;;;0.30;0.20;;;12.90;99.90;;;;;;5110503;28;20176;-87
2023/11/07 00:07:57;;;;;;;1.33;1.33;;;12.90;99.90;;;;;;5109387;28;20705;-89
2023/11/07 00:10:27;;;;;;;0.30;0.20;;;12.90;99.90;;;;;;5108992;28;20175;-88
2023/11/07 00:12:53;;;;;;;2.10;2.00;;;12.90;99.90;;;;;;5125186;27;20487;-77
2023/11/07 00:15:20;;;;;;;0.30;0.20;;;12.90;99.90;;;;;;5124973;27;20410;-89
2023/11/07 00:17:46;;;;;;;0.30;0.20;;;12.90;99.90;;;;;;5109127;28;20547;-84
2023/11/07 00:20:11;;;;;;;0.30;0.20;;;12.80;99.90;;;;;;5107875;28;20491;-87
2023/11/07 00:22:37;;;;;;;0.30;0.20;;;12.70;99.90;;;;;;5111724;28;20427;-77
2023/11/07 00:25:04;;;;;;;0.30;0.20;;;12.70;99.90;;;;;;5109144;28;20206;-77
2023/11/07 00:27:29;;;;;;;0.30;0.20;;;12.60;99.90;;;;;;5110135;28;20259;-79
2023/11/07 00:29:55;;;;;;;0.30;0.30;;;12.60;99.90;;;;;;5124782;27;21032;-89
2023/11/07 00:32:21;;;;;;;0.30;0.20;;;12.60;99.90;;;;;;5108922;28;20640;-88
2023/11/07 00:34:46;;;;;;;0.30;0.20;;;12.60;99.90;;;;;;5111126;28;20314;-89
2023/11/07 00:37:12;;;;;;;0.30;0.20;;;12.60;99.90;;;;;;5126783;27;20215;-77
2023/11/07 00:39:37;;;;;;;0.30;0.20;;;12.60;99.90;;;;;;5124848;27;20223;-89
2023/11/07 00:42:04;;;;;;;0.30;0.20;;;12.60;99.90;;;;;;5125927;27;20171;-77
2023/11/07 00:44:30;;;;;;;0.30;0.20;;;12.70;99.90;;;;;;5108701;28;20219;-77
2023/11/07 00:46:56;;;;;;;0.30;0.20;;;12.70;99.90;;;;;;5108990;28;20408;-78
2023/11/07 00:49:22;;;;;;;1.50;1.40;;;12.70;99.90;;;;;;5123897;27;20450;-88
2023/11/07 00:51:48;;;;;;;0.30;0.20;;;12.70;99.90;;;;;;5110715;28;20182;-83
2023/11/07 00:54:14;;;;;;;0.30;0.20;;;12.70;99.90;;;;;;5125553;27;20204;-76
2023/11/07 00:56:40;;;;;;;0.30;0.20;;;12.70;99.90;;;;;;5124979;27;21010;-77
2023/11/07 00:59:06;;;;;;;11.03;10.20;;;12.80;99.90;;;;;;5107026;27;20448;-88
2023/11/07 01:01:32;;;;;;;0.30;0.20;;;12.80;99.90;;;;;;5108209;28;20408;-81
2023/11/07 01:04:00;;;;;;;0.30;0.20;;;12.80;99.90;;;;;;5124009;27;20298;-77
2023/11/07 01:06:26;;;;;;;0.50;0.50;;;12.70;99.90;;;;;;5110994;28;20542;-89
2023/11/07 01:08:52;;;;;;;0.30;0.20;;;12.70;99.90;;;;;;5124667;27;20548;-78
2023/11/07 01:11:18;;;;;;;0.30;0.20;;;12.70;99.90;;;;;;5108515;27;20172;-85
2023/11/07 01:13:44;;;;;;;0.30;0.20;;;12.70;99.90;;;;;;5123565;27;20754;-77
2023/11/07 01:16:10;;;;;;;0.30;0.20;;;12.70;99.90;;;;;;5123891;27;20460;-88
2023/11/07 01:18:37;;;;;;;3.13;1.37;;;12.70;99.90;;;;;;5107796;28;20979;-88
2023/11/07 01:21:03;;;;;;;0.30;0.20;;;12.70;99.90;;;;;;5108899;28;20553;-77
2023/11/07 01:23:29;;;;;;;0.30;0.20;;;12.60;99.90;;;;;;5122626;27;20535;-77
2023/11/07 01:25:54;;;;;;;0.30;0.20;;;12.60;99.90;;;;;;5123474;27;20176;-77
2023/11/07 01:28:21;;;;;;;0.30;0.20;;;12.60;99.90;;;;;;5108182;28;20610;-88
2023/11/07 01:30:48;;;;;;;0.30;0.20;;;12.50;99.90;;;;;;5107618;28;20195;-89
2023/11/07 01:33:14;;;;;;;0.30;0.27;;;12.50;99.90;;;;;;5108217;28;21013;-77
2023/11/07 01:35:40;;;;;;;0.30;0.20;;;12.50;99.90;;;;;;5106880;28;20419;-88
2023/11/07 01:38:05;;;;;;;0.30;0.20;;;12.50;99.90;;;;;;5107691;28;20471;-88
2023/11/07 01:40:31;;;;;;;0.30;0.20;;;12.50;99.90;;;;;;5123484;27;20549;-88
2023/11/07 01:42:57;;;;;;;1.17;1.17;;;12.60;99.90;;;;;;5108164;28;20187;-78
2023/11/07 01:45:23;;;;;;;0.30;0.20;;;12.60;99.90;;;;;;5126944;27;20172;-77
2023/11/07 01:47:49;;;;;;;0.30;0.30;;;12.60;99.90;;;;;;5122545;27;20184;-88
2023/11/07 01:50:15;;;;;;;0.30;0.30;;;12.70;99.90;;;;;;5106223;28;20412;-78
2023/11/07 01:52:41;;;;;;;0.30;0.20;;;12.70;99.90;;;;;;5108985;28;20838;-77
2023/11/07 01:55:11;;;;;;;0.30;0.20;;;12.60;99.90;;;;;;5107047;28;20472;-88
2023/11/07 01:57:44;;;;;;;0.30;0.20;;;12.60;99.90;;;;;;5107019;28;20452;-78
2023/11/07 02:00:12;;;;;;;0.30;0.20;;;12.50;99.90;;;;;;5107232;28;20420;-89
2023/11/07 02:02:39;;;;;;;0.40;0.40;;;12.60;99.90;;;;;;5106157;28;20408;-77
2023/11/07 02:05:12;;;;;;;0.30;0.20;;;12.60;99.90;;;;;;5105956;28;20470;-89
2023/11/07 02:07:38;;;;;;;0.40;0.33;;;12.60;99.90;;;;;;5107284;28;20772;-78
2023/11/07 02:10:05;;;;;;;0.50;0.50;;;12.60;99.90;;;;;;5107239;28;20428;-78
2023/11/07 02:12:31;;;;;;;0.30;0.30;;;12.70;99.90;;;;;;5105366;28;20419;-77
2023/11/07 02:14:57;;;;;;;0.30;0.20;;;12.60;99.90;;;;;;5105567;28;20530;-88
2023/11/07 02:17:23;;;;;;;0.30;0.20;;;12.60;99.90;;;;;;5106735;28;20736;-88
2023/11/07 02:19:49;;;;;;;0.40;0.33;;;12.60;99.90;;;;;;5106465;28;20216;-89
2023/11/07 02:22:15;;;;;;;0.30;0.20;;;12.60;99.90;;;;;;5106799;28;20190;-78
2023/11/07 02:24:41;;;;;;;0.30;0.20;;;12.60;99.90;;;;;;5104995;28;20546;-88
2023/11/07 02:27:08;;;;;;;0.30;0.20;;;12.60;99.90;;;;;;5106010;28;20497;-79
2023/11/07 02:29:33;;;;;;;0.30;0.20;;;12.50;99.90;;;;;;5105219;28;21151;-78
2023/11/07 02:31:59;;;;;;;0.30;0.20;;;12.50;99.90;;;;;;5104636;28;20171;-79
2023/11/07 02:34:25;;;;;;;0.30;0.20;;;12.50;99.90;;;;;;5106794;28;20249;-78
2023/11/07 02:36:52;;;;;;;0.30;0.20;;;12.50;99.90;;;;;;5105226;28;20453;-88
2023/11/07 02:39:17;;;;;;;0.30;0.20;;;12.50;99.90;;;;;;5104912;28;20532;-90
2023/11/07 02:41:44;;;;;;;0.30;0.20;;;12.40;99.90;;;;;;5106281;28;20820;-78
2023/11/07 02:44:10;;;;;;;0.57;0.57;;;12.40;99.90;;;;;;5105181;28;20212;-78
2023/11/07 02:46:37;;;;;;;0.30;0.20;;;12.50;99.90;;;;;;5105319;28;20400;-77
2023/11/07 02:49:06;;;;;;;0.30;0.20;;;12.50;99.90;;;;;;5108609;28;20543;-89
2023/11/07 02:51:32;;;;;;;0.30;0.20;;;12.50;99.90;;;;;;5106856;28;20428;-89
2023/11/07 02:53:58;;;;;;;0.30;0.20;;;12.50;99.90;;;;;;5107975;28;20439;-78
2023/11/07 02:56:27;;;;;;;0.87;0.87;;;12.50;99.90;;;;;;5106387;28;20999;-87
2023/11/07 02:58:56;;;;;;;0.30;0.20;;;12.50;99.90;;;;;;5104845;28;20233;-78
2023/11/07 03:01:22;;;;;;;0.30;0.20;;;12.50;99.90;;;;;;5105004;28;20408;-77
2023/11/07 03:03:49;;;;;;;0.30;0.20;;;12.50;99.90;;;;;;5105956;28;20477;-77
2023/11/07 03:06:15;;;;;;;0.30;0.20;;;12.50;99.90;;;;;;5105645;28;20753;-77
2023/11/07 03:08:41;;;;;;;0.30;0.20;;;12.50;99.90;;;;;;5106199;28;20542;-77
2023/11/07 03:11:07;;;;;;;0.30;0.20;;;12.50;99.90;;;;;;5105505;28;20840;-87
2023/11/07 03:13:34;;;;;;;0.30;0.20;;;12.50;99.90;;;;;;5104598;28;20528;-76
2023/11/07 03:16:03;;;;;;;0.40;0.20;;;12.60;99.90;;;;;;5106210;28;20428;-89
2023/11/07 03:18:29;;;;;;;2.20;2.10;;;12.60;99.90;;;;;;5105021;28;20538;-89
2023/11/07 03:20:55;;;;;;;0.53;0.53;;;12.60;99.90;;;;;;5107959;28;20433;-78
2023/11/07 03:23:22;;;;;;;0.40;0.40;;;12.70;99.90;;;;;;5110335;28;20294;-91
2023/11/07 03:25:47;;;;;;;0.30;0.20;;;12.80;99.90;;;;;;5105431;28;20412;-88
2023/11/07 03:28:13;;;;;;;0.30;0.20;;;12.90;99.90;;;;;;5106133;28;20646;-78
2023/11/07 03:30:38;;;;;;;0.30;0.20;;;12.90;99.90;;;;;;5106098;28;20175;-79
2023/11/07 03:33:05;;;;;;;0.40;0.30;;;13.00;99.90;;;;;;5106391;28;20326;-89
2023/11/07 03:35:30;;;;;;;0.50;0.50;;;13.00;99.90;;;;;;5105874;28;20172;-88
2023/11/07 03:37:56;;;;;;;0.30;0.20;;;13.00;99.90;;;;;;5104063;28;20487;-79
2023/11/07 03:40:22;;;;;;;0.30;0.20;;;13.10;99.90;;;;;;5106090;28;20445;-88
2023/11/07 03:42:47;;;;;;;0.30;0.20;;;13.10;99.90;;;;;;5107890;28;20648;-78
2023/11/07 03:45:13;;;;;;;0.60;0.60;;;13.10;99.90;;;;;;5108642;28;20515;-88
2023/11/07 03:47:39;;;;;;;0.30;0.30;;;13.10;99.90;;;;;;5108468;28;20450;-86
2023/11/07 03:50:06;;;;;;;0.40;0.40;;;13.10;99.90;;;;;;5109945;27;20190;-79
2023/11/07 03:52:32;;;;;;;0.80;0.80;;;13.20;99.90;;;;;;5108524;28;20412;-88
2023/11/07 03:54:57;;;;;;;0.30;0.20;;;13.20;99.90;;;;;;5107773;28;20434;-78
2023/11/07 03:57:23;;;;;;;0.30;0.20;;;13.30;99.90;;;;;;5109548;28;20636;-78
2023/11/07 03:59:50;;;;;;;0.30;0.20;;;13.30;99.90;;;;;;5109192;28;20199;-78
2023/11/07 04:02:16;;;;;;;0.30;0.20;;;13.30;99.90;;;;;;5112738;28;20404;-89
2023/11/07 04:04:42;;;;;;;0.30;0.20;;;13.40;99.90;;;;;;5110106;28;20956;-89
2023/11/07 04:07:08;;;;;;;0.30;0.20;;;13.40;99.90;;;;;;5108821;28;20446;-81
2023/11/07 04:09:34;;;;;;;0.30;0.20;;;13.50;99.90;;;;;;5107799;28;20204;-78
2023/11/07 04:12:00;;;;;;;0.87;0.87;;;13.60;99.90;;;;;;5108364;28;20201;-88
2023/11/07 04:14:25;;;;;;;2.10;2.00;;;13.60;99.90;;;;;;5107644;28;20491;-78
2023/11/07 04:16:51;;;;;;;0.30;0.20;;;13.60;99.90;;;;;;5108062;28;20547;-83
2023/11/07 04:19:17;;;;;;;0.30;0.20;;;13.70;99.90;;;;;;5107554;28;20211;-88
2023/11/07 04:21:43;;;;;;;1.20;1.10;;;13.70;99.90;;;;;;5108767;28;20693;-79
2023/11/07 04:24:09;;;;;;;13.53;12.57;;;13.70;99.90;;;;;;5107333;28;20851;-78
2023/11/07 04:26:35;;;;;;;0.30;0.20;;;13.60;99.90;;;;;;5107615;28;20495;-86
2023/11/07 04:29:01;;;;;;;0.30;0.20;;;13.60;99.90;;;;;;5107318;28;20852;-77
2023/11/07 04:31:27;;;;;;;0.40;0.40;;;13.70;99.90;;;;;;5106782;28;20180;-88
2023/11/07 04:33:53;;;;;;;0.90;0.90;;;13.70;99.90;;;;;;5107072;28;20589;-78
2023/11/07 04:36:19;;;;;;;0.47;0.47;;;13.70;99.90;;;;;;5107440;28;20564;-87
2023/11/07 04:38:45;;;;;;;0.30;0.20;;;13.80;99.90;;;;;;5107591;28;20207;-88
2023/11/07 04:41:12;;;;;;;0.30;0.30;;;13.80;99.90;;;;;;5110604;28;20426;-78
2023/11/07 04:43:39;;;;;;;4.33;4.20;;;13.80;99.90;;;;;;5108993;28;20448;-78
2023/11/07 04:46:05;;;;;;;0.40;0.30;;;13.90;99.90;;;;;;5107309;28;20434;-88
2023/11/07 04:48:34;;;;;;;0.30;0.20;;;13.90;99.90;;;;;;5107295;28;20451;-81
2023/11/07 04:51:00;;;;;;;0.30;0.20;;;13.90;99.90;;;;;;5107344;28;20721;-89
2023/11/07 04:53:28;;;;;;;0.30;0.20;;;13.90;99.90;;;;;;5107566;28;21169;-87
2023/11/07 04:55:54;;;;;;;0.30;0.20;;;13.90;99.90;;;;;;5106508;28;20967;-77
2023/11/07 04:58:20;;;;;;;0.30;0.20;;;13.90;99.90;;;;;;5108198;28;20494;-91
2023/11/07 05:00:46;;;;;;;0.30;0.20;;;13.90;99.90;;;;;;5106799;28;20893;-78
2023/11/07 05:03:11;;;;;;;1.53;1.53;;;13.90;99.90;;;;;;5108528;28;20229;-89
2023/11/07 05:05:37;;;;;;;0.40;0.40;;;13.90;99.90;;;;;;5106752;28;20176;-88
2023/11/07 05:08:03;;;;;;;0.63;0.63;;;13.90;99.90;;;;;;5108288;28;20460;-89
2023/11/07 05:10:29;;;;;;;0.30;0.20;;;13.90;99.90;;;;;;5105864;28;20794;-87
2023/11/07 05:12:55;;;;;;;0.30;0.20;;;13.90;99.90;;;;;;5105361;28;21004;-88
2023/11/07 05:15:21;;;;;;;0.30;0.20;;;13.80;99.90;;;;;;5105453;28;20400;-89
2023/11/07 05:17:48;;;;;;;0.30;0.20;;;13.80;99.90;;;;;;5105290;28;20844;-88
2023/11/07 05:20:15;;;;;;;0.30;0.20;;;13.80;99.90;;;;;;5097390;28;20456;-78
2023/11/07 05:22:41;;;;;;;0.30;0.20;;;13.80;99.90;;;;;;5086165;28;20632;-88
2023/11/07 05:25:07;;;;;;;0.30;0.30;;;13.90;99.90;;;;;;5084107;28;20409;-79
2023/11/07 05:27:33;;;;;;;0.50;0.50;;;14.00;99.90;;;;;;5090720;28;20405;-89
2023/11/07 05:29:59;;;;;;;0.30;0.20;;;14.00;99.90;;;;;;5103237;28;20805;-77
2023/11/07 05:32:24;;;;;;;0.30;0.30;;;14.10;99.90;;;;;;5103019;28;21070;-80
2023/11/07 05:34:50;;;;;;;0.30;0.20;;;14.20;99.90;;;;;;5104725;28;20195;-88
2023/11/07 05:37:17;;;;;;;3.03;2.20;;;14.20;99.90;;;;;;5124978;27;20192;-90
2023/11/07 05:39:46;;;;;;;0.30;0.30;;;14.20;99.90;;;;;;5096301;28;20200;-79
2023/11/07 05:42:12;;;;;;;0.40;0.40;;;14.20;99.90;;;;;;5095268;28;20420;-78
2023/11/07 05:44:38;;;;;;;0.30;0.20;;;14.20;99.90;;;;;;5107596;28;20481;-78
2023/11/07 05:47:04;;;;;;;0.50;0.50;;;14.20;99.90;;;;;;5107450;28;20552;-90
2023/11/07 05:49:30;;;;;;;0.30;0.20;;;14.10;99.90;;;;;;5108551;28;20455;-79
2023/11/07 05:51:56;;;;;;;0.30;0.20;;;14.20;99.90;;;;;;5104276;28;20404;-78
2023/11/07 05:54:22;;;;;;;0.30;0.20;;;14.10;99.90;;;;;;5105808;28;20204;-89
2023/11/07 05:56:49;;;;;;;0.30;0.20;;;14.10;99.90;;;;;;5106619;28;20710;-89
2023/11/07 05:59:14;;;;;;;0.30;0.20;;;14.10;99.90;;;;;;5084635;28;20437;-90
2023/11/07 06:01:40;;;;;;;3.53;2.67;;;14.10;99.90;;;;;;5086156;28;20416;-88
2023/11/07 06:04:07;;;;;;;0.30;0.20;;;14.10;99.90;;;;;;5086118;28;20196;-80
2023/11/07 06:06:32;;;;;;;0.30;0.20;;;14.10;99.90;;;;;;5098036;28;20328;-79
2023/11/07 06:08:58;;;;;;;0.30;0.20;;;14.10;99.90;;;;;;5106179;28;20458;-90
2023/11/07 06:11:24;;;;;;;1.53;1.43;;;14.00;99.90;;;;;;5108775;28;20172;-78
2023/11/07 06:13:49;;;;;;;0.30;0.30;;;14.00;99.90;;;;;;5106147;28;20314;-90
2023/11/07 06:16:15;;;;;;;0.30;0.20;;;13.90;99.90;;;;;;5124508;27;20175;-85
2023/11/07 06:18:41;;;;;;;0.40;0.30;;;13.90;99.90;;;;;;5103546;27;20204;-78
2023/11/07 06:21:06;;;;;;;0.30;0.20;;;13.90;99.90;;;;;;5108306;27;20195;-88
2023/11/07 06:23:32;;;;;;;1.40;1.30;;;13.80;99.90;;;;;;5099675;28;20310;-78
2023/11/07 06:25:58;;;;;;;0.50;0.47;;;13.80;99.90;;;;;;5103292;28;20790;-88
2023/11/07 06:28:24;;;;;;;3.33;1.43;;;13.80;99.90;;;;;;5102485;28;20207;-78
2023/11/07 06:30:51;;;;;;;0.30;0.30;;;13.80;99.90;;;;;;5103694;28;20186;-89
2023/11/07 06:33:19;;;;;;;1.33;1.23;;;13.80;99.90;;;;;;5106106;28;20299;-91
2023/11/07 06:35:44;;;;;;;2.63;2.53;;;13.80;99.90;;;;;;5108900;27;20432;-77
2023/11/07 06:38:10;;;;;;;0.30;0.30;;;13.80;99.90;;;;;;5101997;28;20552;-77
2023/11/07 06:40:36;;;;;;;1.63;1.53;;;13.80;99.90;;;;;;5103703;28;20262;-79
2023/11/07 06:43:03;;;;;;;0.40;0.40;;;13.80;99.90;;;;;;5105455;28;20707;-77
2023/11/07 06:45:29;;;;;;;0.40;0.20;;;13.80;99.90;;;;;;5113489;27;20611;-78
2023/11/07 06:47:55;;;;;;;0.30;0.20;;;13.90;99.90;;;;;;5108399;28;20412;-89
2023/11/07 06:50:20;;;;;;;0.40;0.40;;;13.90;99.90;;;;;;5103199;28;20412;-79
2023/11/07 06:52:51;;;;;;;0.93;0.87;;;13.90;99.90;;;;;;5101809;28;20699;-89
2023/11/07 06:55:21;;;;;;;1.27;1.17;;;13.80;99.90;;;;;;5103177;28;20176;-89
2023/11/07 06:57:48;;;;;;;0.30;0.20;;;13.80;99.90;;;;;;5105748;28;20475;-88
2023/11/07 07:00:14;;;;;;;0.40;0.40;;;13.70;99.90;;;;;;5103538;28;20400;-78
2023/11/07 07:02:41;;;;;;;1.60;1.50;;;13.70;99.90;;;;;;5101328;28;20951;-88
2023/11/07 07:05:12;;;;;;;0.33;0.30;;;13.70;99.90;;;;;;5096923;28;20519;-90
2023/11/07 07:07:40;;;;;;;1.33;1.23;;;13.70;99.90;;;;;;5100970;28;20430;-78
2023/11/07 07:10:09;;;;;;;0.30;0.20;;;13.60;99.90;;;;;;5092491;28;20408;-80
2023/11/07 07:12:38;;;;;;;0.80;0.80;;;13.60;99.90;;;;;;5091032;28;20445;-77
2023/11/07 07:15:06;;;;;;;0.30;0.20;;;13.60;99.90;;;;;;5092071;28;20751;-89
2023/11/07 07:17:32;;;;;;;0.30;0.20;;;13.70;99.90;;;;;;5100145;28;20778;-77
2023/11/07 07:20:01;;;;;;;0.30;0.20;;;13.70;99.90;;;;;;5094490;28;20964;-89
2023/11/07 07:22:29;;;;;;;1.03;1.03;;;13.80;99.90;;;;;;5106082;28;20465;-78
2023/11/07 07:24:56;;;;;;;0.30;0.20;;;13.80;99.90;;;;;;5118040;27;20487;-77
2023/11/07 07:27:27;;;;;;;0.30;0.20;;;13.80;99.90;;;;;;5089862;28;20427;-77
2023/11/07 07:29:59;;;;;;;0.30;0.30;;;13.90;99.90;;;;;;5102665;28;20952;-88
2023/11/07 07:32:28;;;;;;;0.30;0.20;;;14.00;99.90;;;;;;5108491;28;20446;-89
2023/11/07 07:34:54;;;;;;;0.30;0.20;;;14.00;99.90;;;;;;5107054;28;20932;-77
2023/11/07 07:37:20;;;;;;;0.30;0.20;;;14.10;99.90;;;;;;5105019;28;20454;-88
2023/11/07 07:39:50;;;;;;;0.30;0.20;;;14.10;99.90;;;;;;5106596;28;20435;-90
2023/11/07 07:42:17;;;;;;;0.97;0.97;;;14.30;99.90;;;;;;5103716;28;20411;-77
2023/11/07 07:44:44;;;;;;;0.30;0.30;;;14.40;99.90;;;;;;5106019;28;20459;-90
2023/11/07 07:47:10;;;;;;;0.57;0.57;;;14.60;99.90;;;;;;5106611;28;20447;-78
2023/11/07 07:49:36;;;;;;;0.30;0.20;;;14.70;99.90;;;;;;5101977;28;20494;-78
2023/11/07 07:52:08;;;;;;;0.30;0.20;;;14.80;99.90;;;;;;5094295;28;20466;-77
2023/11/07 07:54:37;;;;;;;0.30;0.30;;;14.80;99.90;;;;;;5096968;28;20961;-78
2023/11/07 07:57:08;;;;;;;0.30;0.20;;;14.80;99.90;;;;;;5105187;28;20954;-88
2023/11/07 07:59:34;;;;;;;0.40;0.40;;;14.90;99.90;;;;;;5102894;28;20620;-89
2023/11/07 08:02:01;;;;;;;0.30;0.20;;;15.40;99.90;;;;;;5105243;28;20408;-79
2023/11/07 08:04:31;;;;;;;0.30;0.20;;;15.90;99.90;;;;;;5104192;28;20643;-78
2023/11/07 08:06:57;;;;;;;0.30;0.20;;;16.40;99.90;;;;;;5105474;28;20460;-79
2023/11/07 08:09:24;;;;;;;0.60;0.60;;;16.90;99.90;;;;;;5109517;27;20497;-77
2023/11/07 08:11:53;;;;;;;0.40;0.30;;;17.30;99.90;;;;;;5105120;28;20459;-78
2023/11/07 08:14:26;;;;;;;0.30;0.20;;;17.50;99.90;;;;;;5104454;28;20483;-77
2023/11/07 08:16:52;;;;;;;0.50;0.50;;;17.50;99.90;;;;;;5107549;28;20544;-90
2023/11/07 08:19:20;;;;;;;0.30;0.20;;;17.30;99.90;;;;;;5107044;27;20440;-90
2023/11/07 08:21:48;;;;;;;0.30;0.30;;;17.10;99.90;;;;;;5100467;28;20828;-88
2023/11/07 08:24:14;;;;;;;0.30;0.20;;;17.00;99.90;;;;;;5107498;27;20473;-88
2023/11/07 08:26:39;;;;;;;0.30;0.20;;;16.90;99.90;;;;;;5100729;28;20828;-84
2023/11/07 08:29:06;;;;;;;0.77;0.77;;;16.80;99.90;;;;;;5091963;28;20447;-89
2023/11/07 08:31:38;;;;;;;0.30;0.20;;;16.70;99.90;;;;;;5110552;27;20172;-78
2023/11/07 08:34:09;;;;;;;0.40;0.40;;;16.60;99.90;;;;;;5090228;28;20667;-89
2023/11/07 08:36:39;;;;;;;0.30;0.20;;;16.60;99.90;;;;;;5095848;28;20888;-90
2023/11/07 08:39:23;;;;;;;1.13;0.93;;;16.50;99.90;;;;;;5095018;28;20900;-90
2023/11/07 08:41:50;;;;;;;0.30;0.20;;;16.50;99.90;;;;;;5087651;28;20932;-89
2023/11/07 08:44:16;;;;;;;4.33;2.30;;;16.40;99.90;;;;;;5093435;28;20488;-81
2023/11/07 08:46:41;;;;;;;0.73;0.73;;;16.40;99.90;;;;;;5097164;28;20460;-88
2023/11/07 08:49:07;;;;;;;0.30;0.20;;;16.40;99.90;;;;;;5094758;28;20592;-89
2023/11/07 08:51:32;;;;;;;0.87;0.87;;;16.30;99.90;;;;;;5091609;28;20184;-78
2023/11/07 08:53:58;;;;;;;0.30;0.20;;;16.30;99.90;;;;;;5107617;27;20366;-86
2023/11/07 08:56:24;;;;;;;0.30;0.30;;;16.30;99.90;;;;;;5104509;28;20176;-90
2023/11/07 08:58:51;;;;;;;0.30;0.23;;;16.30;99.90;;;;;;5103358;28;20293;-89
2023/11/07 09:01:18;;;;;;;0.30;0.20;;;16.40;99.90;;;;;;5098987;28;20432;-89
2023/11/07 09:03:45;;;;;;;1.70;0.97;;;16.40;99.90;;;;;;5101285;27;20475;-89
2023/11/07 09:06:11;;;;;;;0.30;0.20;;;16.50;99.90;;;;;;5086199;28;20413;-78
2023/11/07 09:08:37;;;;;;;0.30;0.20;;;16.60;99.90;;;;;;5103868;27;20852;-91
2023/11/07 09:11:03;;;;;;;0.30;0.20;;;16.60;99.90;;;;;;5094054;28;20521;-78
2023/11/07 09:13:29;;;;;;;0.30;0.20;;;16.70;99.90;;;;;;5111796;27;20483;-79
2023/11/07 09:15:55;;;;;;;0.30;0.20;;;16.80;99.90;;;;;;5093286;28;20633;-87
2023/11/07 09:18:22;;;;;;;0.30;0.20;;;16.90;99.90;;;;;;5099034;28;20587;-90
2023/11/07 09:20:48;;;;;;;0.50;0.40;;;16.90;99.90;;;;;;5102187;28;20456;-90
2023/11/07 09:23:14;;;;;;;2.93;2.83;;;17.00;99.90;;;;;;5089006;28;20877;-78
2023/11/07 09:25:40;;;;;;;0.30;0.20;;;17.00;99.90;;;;;;5101941;28;20501;-87
2023/11/07 09:28:07;;;;;;;0.30;0.20;;;17.10;99.90;;;;;;5103059;28;20445;-78
2023/11/07 09:30:33;;;;;;;10.03;2.73;;;17.10;99.90;;;;;;5102729;27;20222;-78
2023/11/07 09:32:58;;;;;;;0.30;0.20;;;17.20;99.90;;;;;;5102569;28;20834;-89
2023/11/07 09:35:24;;;;;;;3.40;2.67;;;17.20;99.90;;;;;;5097298;28;20416;-86
2023/11/07 09:37:50;;;;;;;0.97;0.97;;;17.20;99.90;;;;;;5099120;28;20212;-89
2023/11/07 09:40:19;;;;;;;0.30;0.30;;;17.10;99.90;;;;;;5104086;28;21001;-88
2023/11/07 09:42:48;;;;;;;0.30;0.30;;;17.20;99.90;;;;;;5098859;28;20442;-89
2023/11/07 09:45:16;;;;;;;0.77;0.77;;;17.20;99.90;;;;;;5115683;27;20827;-80
2023/11/07 09:47:48;;;;;;;2.10;2.00;;;17.30;99.90;;;;;;5102986;27;20438;-78
2023/11/07 09:50:18;;;;;;;0.30;0.20;;;17.40;99.90;;;;;;5097270;28;20513;-90
2023/11/07 09:52:46;;;;;;;1.17;0.80;;;17.50;99.90;;;;;;5096438;28;20438;-78
2023/11/07 09:55:14;;;;;;;0.40;0.27;;;17.70;99.90;;;;;;5104514;28;20422;-78
2023/11/07 09:57:51;;;;;;;0.30;0.20;;;17.70;99.90;;;;;;5106901;28;20482;-88
2023/11/07 10:00:22;;;;;;;0.30;0.30;;;17.80;99.90;;;;;;5105162;28;20960;-89
2023/11/07 10:02:49;;;;;;;0.30;0.20;;;17.90;99.90;;;;;;5104348;28;20435;-78
2023/11/07 10:05:18;;;;;;;0.30;0.20;;;18.00;99.90;;;;;;5119360;27;20411;-78
2023/11/07 10:07:49;;;;;;;0.30;0.20;;;18.10;99.90;;;;;;5101822;28;20996;-78
2023/11/07 10:10:16;;;;;;;0.30;0.20;;;18.30;99.90;;;;;;5105260;28;20411;-88
2023/11/07 10:12:43;;;;;;;0.30;0.20;;;18.30;99.90;;;;;;5104914;28;20518;-89
2023/11/07 10:15:18;;;;;;;0.40;0.40;;;18.40;99.90;;;;;;5091680;28;20598;-89
2023/11/07 10:18:04;;;;;;;0.40;0.30;;;18.50;99.90;;;;;;5088033;28;20482;-78
2023/11/07 10:20:32;;;;;;;0.30;0.20;;;18.60;99.90;;;;;;5101246;28;20540;-89
2023/11/07 10:23:00;;;;;;;0.40;0.30;;;18.70;99.90;;;;;;5103456;28;20439;-79
2023/11/07 10:25:34;;;;;;;0.30;0.20;;;18.80;99.90;;;;;;5102302;28;20492;-90
2023/11/07 10:28:09;;;;;;;0.30;0.20;;;18.90;99.90;;;;;;5102575;28;20419;-79
2023/11/07 10:30:41;;;;;;;0.73;0.73;;;18.90;99.90;;;;;;5101018;28;20418;-79
2023/11/07 10:33:12;;;;;;;0.30;0.20;;;18.90;99.90;;;;;;5095598;28;20455;-89
2023/11/07 10:35:54;;;;;;;1.70;1.60;;;19.00;99.90;;;;;;5109187;27;20427;-91
2023/11/07 10:38:20;;;;;;;0.30;0.20;;;19.10;99.90;;;;;;5100888;28;20582;-91
2023/11/07 10:40:48;;;;;;;0.30;0.20;;;19.20;99.90;;;;;;5098870;28;20418;-90
2023/11/07 10:43:15;;;;;;;4.73;2.10;;;19.20;99.90;;;;;;5101718;28;20447;-79
2023/11/07 10:45:41;;;;;;;0.43;0.43;;;19.30;99.90;;;;;;5099759;28;20404;-89
2023/11/07 10:48:08;;;;;;;0.30;0.20;;;19.30;99.90;;;;;;5102739;28;20443;-90
2023/11/07 10:50:35;;;;;;;0.30;0.20;;;19.40;99.90;;;;;;5104561;28;20470;-79
2023/11/07 10:53:01;;;;;;;0.30;0.20;;;19.40;99.90;;;;;;5100771;28;20490;-78
2023/11/07 10:55:27;;;;;;;0.30;0.20;;;19.50;99.90;;;;;;5100017;28;20424;-89
2023/11/07 10:58:01;;;;;;;0.30;0.20;;;19.50;99.90;;;;;;5105627;28;20486;-90
2023/11/07 11:00:32;;;;;;;0.30;0.20;;;19.50;99.90;;;;;;5102132;28;20416;-90
2023/11/07 11:03:03;;;;;;;0.50;0.50;;;19.60;99.90;;;;;;5120456;28;20530;-78
2023/11/07 11:05:29;;;;;;;0.30;0.20;;;19.70;99.90;;;;;;5096995;28;20774;-89
2023/11/07 11:08:02;;;;;;;0.30;0.20;;;19.80;99.90;;;;;;5098947;28;20416;-78
2023/11/07 11:10:29;;;;;;;0.40;0.40;;;19.80;99.90;;;;;;5099795;28;20452;-89
2023/11/07 11:12:56;;;;;;;0.30;0.20;;;19.80;99.90;;;;;;5098038;28;20487;-89
2023/11/07 11:15:22;;;;;;;0.30;0.20;;;19.90;99.90;;;;;;5096931;28;20845;-90
2023/11/07 11:18:14;;;;;;;0.30;0.20;;;19.90;99.90;;;;;;5098491;28;20478;-79
2023/11/07 11:20:55;;;;;;;0.30;0.20;;;19.90;99.90;;;;;;5096285;28;20423;-90
2023/11/07 11:24:01;;;;;;;0.30;0.20;;;20.00;99.90;;;;;;5099950;28;20473;-89
2023/11/07 11:26:53;;;;;;;0.53;0.53;;;20.00;99.90;;;;;;5092032;28;20957;-78
2023/11/07 11:29:29;;;;;;;0.30;0.20;;;20.10;99.90;;;;;;5104082;28;20879;-89
2023/11/07 11:31:56;;;;;;;0.30;0.30;;;20.10;99.90;;;;;;5099895;28;20419;-78
2023/11/07 11:34:28;;;;;;;0.30;0.20;;;20.10;99.90;;;;;;5095652;28;20964;-89
2023/11/07 11:36:57;;;;;;;0.30;0.20;;;20.10;99.90;;;;;;5092600;28;20467;-79
2023/11/07 11:39:29;;;;;;;0.67;0.67;;;20.10;99.90;;;;;;5095420;28;20460;-89
2023/11/07 11:41:56;;;;;;;0.30;0.20;;;20.20;99.90;;;;;;5095727;28;20424;-78
2023/11/07 11:44:24;;;;;;;0.30;0.20;;;20.20;99.90;;;;;;5118323;27;20440;-89
2023/11/07 11:46:57;;;;;;;0.30;0.20;;;20.20;99.90;;;;;;5103053;28;20585;-78
2023/11/07 11:49:23;;;;;;;0.40;0.40;;;20.20;99.90;;;;;;5094915;28;20460;-88
2023/11/07 11:51:54;;;;;;;0.30;0.20;;;20.20;99.90;;;;;;5099256;28;20432;-78
2023/11/07 11:54:22;;;;;;;0.50;0.50;;;20.10;99.90;;;;;;5091819;28;20443;-89
2023/11/07 11:56:51;;;;;;;0.30;0.20;;;20.10;99.90;;;;;;5092317;28;20632;-78
2023/11/07 11:59:28;;;;;;;0.30;0.20;;;20.10;99.90;;;;;;5090336;28;20452;-89
2023/11/07 12:01:59;;;;;;;0.60;0.60;;;20.10;99.90;;;;;;5090773;28;20431;-89
2023/11/07 12:04:33;;;;;;;0.30;0.20;;;20.10;99.90;;;;;;5095127;28;20874;-89
2023/11/07 12:07:22;;;;;;;0.30;0.20;;;20.10;99.90;;;;;;5113475;27;20459;-89
2023/11/07 12:09:50;;;;;;;0.30;0.20;;;20.00;99.90;;;;;;5094920;28;20456;-78
2023/11/07 12:12:19;;;;;;;0.30;0.20;;;20.00;99.90;;;;;;5100459;28;20430;-89
2023/11/07 12:14:59;;;;;;;0.30;0.20;;;20.00;99.90;;;;;;5099455;28;20474;-91
2023/11/07 12:17:40;;;;;;;0.30;0.20;;;20.00;99.90;;;;;;5094419;28;20559;-90
2023/11/07 12:20:11;;;;;;;0.30;0.20;;;20.00;99.90;;;;;;5100032;28;20462;-89
2023/11/07 12:22:38;;;;;;;0.50;0.50;;;20.00;99.90;;;;;;5098087;28;20424;-90
2023/11/07 12:25:13;;;;;;;0.30;0.30;;;20.00;99.90;;;;;;5101350;28;20433;-88
2023/11/07 12:27:42;;;;;;;0.30;0.30;;;20.00;99.90;;;;;;5103372;28;20799;-78
2023/11/07 12:30:16;;;;;;;0.30;0.20;;;20.00;99.90;;;;;;5128168;27;20859;-90
2023/11/07 12:32:43;;;;;;;0.30;0.20;;;20.00;99.90;;;;;;5103222;28;20438;-79
2023/11/07 12:35:20;;;;;;;0.30;0.20;;;20.00;99.90;;;;;;5126232;27;20423;-79
2023/11/07 12:37:46;;;;;;;0.30;0.20;;;20.00;99.90;;;;;;5094621;28;20464;-78
2023/11/07 12:40:15;;;;;;;3.43;3.20;;;19.90;99.90;;;;;;5097985;28;20521;-89
2023/11/07 12:42:43;;;;;;;0.30;0.20;;;20.00;99.90;;;;;;5100192;28;20437;-79
2023/11/07 12:45:09;;;;;;;0.30;0.20;;;20.00;99.90;;;;;;5097340;28;20424;-79
2023/11/07 12:47:35;;;;;;;0.60;0.50;;;20.00;99.90;;;;;;5102002;27;20426;-79